Time;durP1;ratioP1;P1;durP2;ratioP2;P2;SDS_P1;SDS_P2;PMS_P1;PMS_P2;Temp;Humidity;BMP_temperature;BMP_pressure;BME280_temperature;BME280_humidity;BME280_pressure;Samples;Min_cycle;Max_cycle;Signal;HPM_P1;HPM_P2
2023/05/26 00:00:28;;;;;;;31.88;6.75;;;10.10;99.90;;;;;;5046133;28;20207;-74
2023/05/26 00:02:56;;;;;;;24.25;6.63;;;10.10;99.90;;;;;;5050017;28;20246;-73
2023/05/26 00:05:25;;;;;;;22.67;7.20;;;10.20;99.90;;;;;;5060661;28;20230;-75
2023/05/26 00:07:53;;;;;;;37.08;8.20;;;10.00;99.90;;;;;;5066721;28;20649;-75
2023/05/26 00:10:21;;;;;;;31.13;6.60;;;10.00;99.90;;;;;;5049181;28;20231;-75
2023/05/26 00:12:49;;;;;;;35.85;8.82;;;10.00;99.90;;;;;;5059564;28;20223;-75
2023/05/26 00:15:16;;;;;;;36.92;9.10;;;10.00;99.90;;;;;;5054038;28;20283;-74
2023/05/26 00:17:47;;;;;;;23.35;5.95;;;10.00;99.90;;;;;;5053759;28;20205;-75
2023/05/26 00:20:14;;;;;;;34.78;7.32;;;9.90;99.90;;;;;;5045495;28;20209;-75
2023/05/26 00:22:41;;;;;;;25.48;7.03;;;9.90;99.90;;;;;;5048960;28;20682;-75
2023/05/26 00:25:09;;;;;;;26.42;7.95;;;9.90;99.90;;;;;;5059270;28;20213;-75
2023/05/26 00:27:36;;;;;;;28.85;7.30;;;9.90;99.90;;;;;;5042597;28;20205;-74
2023/05/26 00:30:04;;;;;;;23.00;6.68;;;9.90;99.90;;;;;;5040680;28;20207;-75
2023/05/26 00:32:31;;;;;;;22.13;7.78;;;9.90;99.90;;;;;;5044851;28;20227;-75
2023/05/26 00:34:58;;;;;;;29.40;5.65;;;9.90;99.90;;;;;;5055459;28;20222;-74
2023/05/26 00:37:25;;;;;;;28.35;8.70;;;9.90;99.90;;;;;;5051286;28;20613;-74
2023/05/26 00:39:52;;;;;;;31.40;7.50;;;9.80;99.90;;;;;;5043019;28;20279;-74
2023/05/26 00:42:20;;;;;;;26.75;6.43;;;9.80;99.90;;;;;;5054718;28;20229;-74
2023/05/26 00:44:46;;;;;;;26.98;6.95;;;9.80;99.90;;;;;;5043974;28;20208;-75
2023/05/26 00:47:15;;;;;;;28.98;6.63;;;9.80;99.90;;;;;;5045917;28;20278;-76
2023/05/26 00:49:42;;;;;;;31.55;6.50;;;9.80;99.90;;;;;;5045160;28;20234;-76
2023/05/26 00:52:09;;;;;;;24.88;6.88;;;9.80;99.90;;;;;;5035989;28;20290;-75
2023/05/26 00:54:36;;;;;;;21.30;6.75;;;9.70;99.90;;;;;;5046622;28;20198;-74
2023/05/26 00:57:04;;;;;;;21.85;6.55;;;9.70;99.90;;;;;;5057252;28;20200;-74
2023/05/26 00:59:31;;;;;;;25.80;6.18;;;9.70;99.90;;;;;;5043193;28;20214;-75
2023/05/26 01:01:59;;;;;;;25.13;6.28;;;9.70;99.90;;;;;;5047227;28;20269;-75
2023/05/26 01:04:28;;;;;;;34.95;7.50;;;9.70;99.90;;;;;;5050064;28;20283;-75
2023/05/26 01:06:56;;;;;;;29.85;6.70;;;9.70;99.90;;;;;;5046396;28;20200;-75
2023/05/26 01:09:23;;;;;;;27.15;7.50;;;9.60;99.90;;;;;;5050756;28;20210;-74
2023/05/26 01:11:55;;;;;;;25.60;6.60;;;9.60;99.90;;;;;;5050873;28;20302;-74
2023/05/26 01:14:30;;;;;;;26.55;6.85;;;9.60;99.90;;;;;;5043397;28;20203;-74
2023/05/26 01:17:03;;;;;;;32.00;7.68;;;9.60;99.90;;;;;;5044422;28;20202;-75
2023/05/26 01:20:03;;;;;;;26.65;6.55;;;9.60;99.90;;;;;;5049427;28;20614;-75
2023/05/26 01:22:45;;;;;;;29.63;7.50;;;9.50;99.90;;;;;;5045912;28;20219;-74
2023/05/26 01:25:22;;;;;;;22.48;6.30;;;9.50;99.90;;;;;;5036474;28;20199;-76
2023/05/26 01:28:05;;;;;;;31.15;8.40;;;9.50;99.90;;;;;;5045154;28;20191;-75
2023/05/26 01:30:32;;;;;;;30.92;8.57;;;9.40;99.90;;;;;;5050722;28;20199;-75
2023/05/26 01:32:59;;;;;;;30.85;6.40;;;9.40;99.90;;;;;;5052613;28;20254;-74
2023/05/26 01:35:26;;;;;;;29.73;5.45;;;9.40;99.90;;;;;;5064326;28;20212;-75
2023/05/26 01:37:54;;;;;;;25.73;7.13;;;9.40;99.90;;;;;;5058376;28;20272;-74
2023/05/26 01:40:22;;;;;;;31.33;6.38;;;9.40;99.90;;;;;;5063553;28;20199;-75
2023/05/26 01:42:58;;;;;;;33.88;7.05;;;9.40;99.90;;;;;;5059596;28;20754;-75
2023/05/26 01:45:32;;;;;;;31.90;6.55;;;9.40;99.90;;;;;;5059937;28;20230;-74
2023/05/26 01:48:02;;;;;;;28.10;6.68;;;9.40;99.90;;;;;;5059099;28;20206;-75
2023/05/26 01:50:33;;;;;;;41.17;7.20;;;9.30;99.90;;;;;;5046076;28;20227;-75
2023/05/26 01:53:05;;;;;;;18.30;6.07;;;9.30;99.90;;;;;;5060861;28;20298;-75
2023/05/26 01:55:34;;;;;;;20.95;6.38;;;9.30;99.90;;;;;;5052078;28;20207;-75
2023/05/26 01:58:03;;;;;;;33.95;10.30;;;9.30;99.90;;;;;;5055674;28;20200;-74
2023/05/26 02:00:32;;;;;;;29.80;7.32;;;9.30;99.90;;;;;;5051474;28;20218;-74
2023/05/26 02:02:58;;;;;;;23.88;5.47;;;9.30;99.90;;;;;;5049501;28;20223;-75
2023/05/26 02:05:26;;;;;;;23.85;6.60;;;9.20;99.90;;;;;;5047841;28;20214;-75
2023/05/26 02:07:53;;;;;;;27.00;7.13;;;9.30;99.90;;;;;;5055179;28;20200;-74
2023/05/26 02:10:20;;;;;;;32.65;6.82;;;9.30;99.90;;;;;;5051851;28;20221;-75
2023/05/26 02:12:46;;;;;;;26.27;7.15;;;9.20;99.90;;;;;;5055064;28;20246;-74
2023/05/26 02:15:13;;;;;;;31.10;7.10;;;9.20;99.90;;;;;;5049928;28;20208;-75
2023/05/26 02:17:42;;;;;;;22.52;6.65;;;9.20;99.90;;;;;;5057042;28;20195;-75
2023/05/26 02:20:11;;;;;;;27.25;8.02;;;9.20;99.90;;;;;;5061404;28;20191;-75
2023/05/26 02:22:38;;;;;;;27.55;6.70;;;9.20;99.90;;;;;;5047547;28;20227;-75
2023/05/26 02:25:20;;;;;;;35.15;7.78;;;9.20;99.90;;;;;;5040962;28;20200;-75
2023/05/26 02:27:47;;;;;;;23.10;5.85;;;9.10;99.90;;;;;;5040262;28;20192;-74
2023/05/26 02:30:21;;;;;;;28.27;7.00;;;9.10;99.90;;;;;;5042873;28;20286;-74
2023/05/26 02:32:49;;;;;;;24.85;5.30;;;9.10;99.90;;;;;;5057288;28;20697;-75
2023/05/26 02:35:22;;;;;;;25.88;6.45;;;9.10;99.90;;;;;;5043494;28;20612;-75
2023/05/26 02:37:49;;;;;;;29.83;6.50;;;9.10;99.90;;;;;;5057637;28;20238;-74
2023/05/26 02:40:31;;;;;;;35.83;7.72;;;9.00;99.90;;;;;;5055441;28;20223;-75
2023/05/26 02:42:58;;;;;;;30.05;6.38;;;9.00;99.90;;;;;;5056694;28;20313;-75
2023/05/26 02:45:25;;;;;;;27.65;5.65;;;9.00;99.90;;;;;;5065639;28;20207;-74
2023/05/26 02:48:04;;;;;;;26.13;5.30;;;8.90;99.90;;;;;;5046514;28;20545;-74
2023/05/26 02:50:31;;;;;;;20.63;5.28;;;8.90;99.90;;;;;;5058385;28;20302;-75
2023/05/26 02:52:58;;;;;;;29.65;7.20;;;8.90;99.90;;;;;;5058201;28;20646;-75
2023/05/26 02:55:25;;;;;;;22.70;6.90;;;8.90;99.90;;;;;;5056064;28;20287;-75
2023/05/26 02:57:53;;;;;;;33.13;8.57;;;8.90;99.90;;;;;;5055875;28;20184;-74
2023/05/26 03:00:20;;;;;;;17.05;4.80;;;8.80;99.90;;;;;;5053230;28;20278;-75
2023/05/26 03:02:52;;;;;;;26.55;6.53;;;8.90;99.90;;;;;;5066385;28;20227;-75
2023/05/26 03:05:21;;;;;;;25.08;6.10;;;8.80;99.90;;;;;;5063595;28;20287;-75
2023/05/26 03:07:48;;;;;;;21.65;7.05;;;8.80;99.90;;;;;;5056445;28;20257;-74
2023/05/26 03:10:14;;;;;;;18.02;6.18;;;8.90;99.90;;;;;;5055052;28;20209;-75
2023/05/26 03:12:52;;;;;;;32.15;6.50;;;8.80;99.90;;;;;;5055394;28;20349;-74
2023/05/26 03:15:19;;;;;;;31.88;6.35;;;8.80;99.90;;;;;;5061396;28;20281;-74
2023/05/26 03:17:46;;;;;;;21.63;5.55;;;8.80;99.90;;;;;;5058668;28;20238;-75
2023/05/26 03:20:13;;;;;;;22.55;6.63;;;8.70;99.90;;;;;;5054490;28;20534;-75
2023/05/26 03:22:41;;;;;;;28.17;5.75;;;8.70;99.90;;;;;;5045785;28;20624;-74
2023/05/26 03:25:08;;;;;;;29.50;6.88;;;8.70;99.90;;;;;;5050004;28;20290;-75
2023/05/26 03:27:39;;;;;;;25.95;7.15;;;8.70;99.90;;;;;;5048969;28;20282;-74
2023/05/26 03:30:07;;;;;;;28.50;5.38;;;8.80;99.90;;;;;;5051662;28;20946;-73
2023/05/26 03:32:34;;;;;;;18.70;7.45;;;8.80;99.90;;;;;;5059733;28;20223;-76
2023/05/26 03:35:01;;;;;;;26.20;9.15;;;8.90;99.90;;;;;;5057472;28;20195;-74
2023/05/26 03:37:28;;;;;;;29.15;6.95;;;8.80;99.90;;;;;;5054716;28;20663;-74
2023/05/26 03:39:58;;;;;;;24.55;7.65;;;8.90;99.90;;;;;;5048445;28;20613;-74
2023/05/26 03:42:28;;;;;;;23.60;6.10;;;8.90;99.90;;;;;;5049773;28;20243;-76
2023/05/26 03:44:55;;;;;;;30.30;6.50;;;9.00;99.90;;;;;;5050656;28;20306;-73
2023/05/26 03:47:22;;;;;;;27.88;6.32;;;9.00;99.90;;;;;;5054798;28;20206;-74
2023/05/26 03:49:51;;;;;;;34.15;6.53;;;9.10;99.90;;;;;;5050765;28;20199;-74
2023/05/26 03:52:18;;;;;;;28.60;7.68;;;9.10;99.90;;;;;;5045729;28;20322;-74
2023/05/26 03:54:45;;;;;;;26.10;6.80;;;9.10;99.90;;;;;;5043553;28;20205;-76
2023/05/26 03:57:13;;;;;;;24.85;6.00;;;9.20;99.90;;;;;;5051164;28;20199;-74
2023/05/26 03:59:40;;;;;;;31.73;6.72;;;9.20;99.90;;;;;;5043915;28;20287;-76
2023/05/26 04:02:07;;;;;;;24.08;6.50;;;9.30;99.90;;;;;;5053529;28;20311;-75
2023/05/26 04:04:35;;;;;;;20.30;5.50;;;9.40;99.90;;;;;;5048855;28;20302;-75
2023/05/26 04:07:03;;;;;;;25.05;5.65;;;9.50;99.90;;;;;;5039884;28;20196;-75
2023/05/26 04:09:30;;;;;;;24.10;5.43;;;9.60;99.90;;;;;;5052126;28;20204;-74
2023/05/26 04:11:57;;;;;;;22.75;6.32;;;9.70;99.90;;;;;;5054471;28;20247;-73
2023/05/26 04:14:25;;;;;;;18.42;6.25;;;9.80;99.90;;;;;;5055454;28;20306;-74
2023/05/26 04:16:53;;;;;;;20.85;5.15;;;9.90;99.90;;;;;;5054403;28;20227;-75
2023/05/26 04:19:20;;;;;;;26.38;6.32;;;10.30;99.90;;;;;;5057904;28;20200;-73
2023/05/26 04:21:47;;;;;;;25.30;7.43;;;10.70;99.90;;;;;;5056219;28;20222;-74
2023/05/26 04:24:14;;;;;;;29.52;6.35;;;11.30;99.90;;;;;;5060679;28;20222;-74
2023/05/26 04:26:40;;;;;;;23.55;5.45;;;11.70;99.90;;;;;;5055777;28;20289;-74
2023/05/26 04:29:07;;;;;;;28.38;7.30;;;12.10;99.90;;;;;;5054493;28;20295;-75
2023/05/26 04:31:40;;;;;;;26.48;6.90;;;12.50;99.90;;;;;;5048294;28;20202;-75
2023/05/26 04:34:08;;;;;;;23.25;6.97;;;12.70;99.90;;;;;;5048353;28;20663;-75
2023/05/26 04:36:38;;;;;;;16.95;5.28;;;13.20;99.90;;;;;;5053569;28;20199;-76
2023/05/26 04:39:06;;;;;;;16.05;4.03;;;13.60;99.90;;;;;;5045607;28;20192;-74
2023/05/26 04:41:34;;;;;;;28.48;6.75;;;14.20;99.90;;;;;;5056214;28;20199;-74
2023/05/26 04:44:01;;;;;;;19.00;6.55;;;14.60;99.90;;;;;;5046181;28;20217;-75
2023/05/26 04:46:29;;;;;;;21.10;6.03;;;15.00;99.90;;;;;;5041634;28;20216;-76
2023/05/26 04:48:57;;;;;;;16.40;5.38;;;15.50;99.90;;;;;;5053454;28;20673;-74
2023/05/26 04:51:24;;;;;;;19.58;6.50;;;15.70;99.90;;;;;;5059319;28;20219;-75
2023/05/26 04:53:51;;;;;;;23.65;5.90;;;16.10;99.90;;;;;;5052401;28;20195;-75
2023/05/26 04:56:18;;;;;;;24.13;5.90;;;16.40;99.10;;;;;;5050967;28;20281;-76
2023/05/26 04:58:45;;;;;;;21.13;5.53;;;16.60;98.10;;;;;;5054131;28;20525;-74
2023/05/26 05:01:12;;;;;;;20.47;5.80;;;16.80;96.70;;;;;;5045746;28;20528;-75
2023/05/26 05:03:42;;;;;;;19.60;6.50;;;17.00;95.80;;;;;;5056909;28;20488;-74
2023/05/26 05:06:11;;;;;;;22.80;5.50;;;17.00;95.50;;;;;;5053603;28;20933;-74
2023/05/26 05:08:38;;;;;;;24.97;7.00;;;16.90;96.20;;;;;;5055805;28;20442;-75
2023/05/26 05:11:05;;;;;;;23.13;6.93;;;17.00;95.40;;;;;;5053885;28;20835;-74
2023/05/26 05:13:33;;;;;;;22.53;5.80;;;16.90;95.00;;;;;;5061965;28;20466;-76
2023/05/26 05:16:01;;;;;;;20.70;6.10;;;16.70;95.00;;;;;;5051145;28;20500;-77
2023/05/26 05:18:28;;;;;;;24.73;5.95;;;16.60;95.80;;;;;;5047583;28;20203;-76
2023/05/26 05:20:56;;;;;;;21.13;6.97;;;16.40;96.00;;;;;;5043213;28;20232;-76
2023/05/26 05:23:24;;;;;;;19.40;6.57;;;16.20;96.30;;;;;;5046085;28;20527;-76
2023/05/26 05:25:52;;;;;;;24.77;6.33;;;16.20;97.00;;;;;;5056080;28;20280;-75
2023/05/26 05:28:19;;;;;;;16.88;5.30;;;16.40;96.30;;;;;;5051484;28;20453;-77
2023/05/26 05:30:46;;;;;;;26.50;6.00;;;16.50;96.20;;;;;;5050633;28;20551;-78
2023/05/26 05:33:14;;;;;;;21.47;7.83;;;16.50;96.00;;;;;;5052469;28;20468;-78
2023/05/26 05:35:41;;;;;;;18.90;6.23;;;16.60;95.90;;;;;;5060676;28;20484;-75
2023/05/26 05:38:08;;;;;;;25.77;6.70;;;16.80;95.80;;;;;;5057817;28;20481;-75
2023/05/26 05:40:36;;;;;;;15.13;4.57;;;17.20;94.80;;;;;;5056003;28;20871;-75
2023/05/26 05:43:03;;;;;;;19.43;5.43;;;17.80;93.50;;;;;;5051357;28;20492;-73
2023/05/26 05:45:31;;;;;;;18.70;5.63;;;18.50;92.50;;;;;;5051720;28;20487;-75
2023/05/26 05:47:58;;;;;;;21.40;6.50;;;19.50;91.20;;;;;;5047122;28;20439;-73
2023/05/26 05:50:25;;;;;;;20.50;6.07;;;20.30;88.20;;;;;;5040764;28;20470;-73
2023/05/26 05:52:52;;;;;;;15.50;5.20;;;20.40;86.30;;;;;;5050755;28;20491;-73
2023/05/26 05:55:20;;;;;;;17.90;5.20;;;20.70;85.70;;;;;;5037661;28;20453;-74
2023/05/26 05:57:48;;;;;;;17.53;5.30;;;21.00;84.30;;;;;;5049801;28;20434;-72
2023/05/26 06:00:16;;;;;;;17.80;5.37;;;20.90;83.60;;;;;;5046181;28;20500;-75
2023/05/26 06:02:43;;;;;;;26.60;7.23;;;21.10;83.10;;;;;;5047879;28;20491;-74
2023/05/26 06:05:10;;;;;;;15.23;5.90;;;21.00;82.80;;;;;;5049968;28;21016;-74
2023/05/26 06:07:37;;;;;;;19.40;5.90;;;21.00;83.00;;;;;;5045271;28;20908;-74
2023/05/26 06:10:05;;;;;;;18.13;6.30;;;20.70;83.20;;;;;;5048852;28;20443;-75
2023/05/26 06:12:32;;;;;;;16.90;5.40;;;20.50;83.30;;;;;;5045504;28;20492;-76
2023/05/26 06:15:02;;;;;;;21.53;6.37;;;20.30;84.10;;;;;;5053256;28;20438;-75
2023/05/26 06:17:29;;;;;;;22.43;5.77;;;20.30;83.10;;;;;;5052974;28;20525;-76
2023/05/26 06:19:56;;;;;;;19.37;6.37;;;20.50;83.70;;;;;;5045028;28;20477;-72
2023/05/26 06:22:23;;;;;;;23.57;6.07;;;20.90;83.20;;;;;;5050122;28;20545;-75
2023/05/26 06:24:50;;;;;;;13.60;4.97;;;21.30;82.00;;;;;;5051402;28;20519;-74
2023/05/26 06:27:17;;;;;;;15.70;4.43;;;21.60;80.80;;;;;;5056511;28;20445;-75
2023/05/26 06:29:44;;;;;;;18.80;6.00;;;21.60;80.80;;;;;;5057617;28;20489;-73
2023/05/26 06:32:12;;;;;;;20.30;6.00;;;21.20;80.90;;;;;;5050480;28;20563;-72
2023/05/26 06:34:39;;;;;;;22.23;6.30;;;21.10;81.30;;;;;;5044569;28;20522;-73
2023/05/26 06:37:08;;;;;;;14.10;4.90;;;21.30;80.90;;;;;;5050944;28;20835;-73
2023/05/26 06:39:35;;;;;;;26.33;6.57;;;21.80;79.80;;;;;;5047565;28;20486;-74
2023/05/26 06:42:01;;;;;;;21.20;6.30;;;22.20;79.50;;;;;;5039677;28;20535;-75
2023/05/26 06:44:29;;;;;;;17.87;5.97;;;22.90;78.80;;;;;;5040455;28;20497;-75
2023/05/26 06:46:56;;;;;;;10.73;4.50;;;23.30;76.20;;;;;;5049029;28;20478;-74
2023/05/26 06:49:24;;;;;;;17.90;6.40;;;23.80;75.40;;;;;;5045471;28;20432;-75
2023/05/26 06:51:51;;;;;;;15.20;5.40;;;24.00;74.00;;;;;;5044926;28;20451;-75
2023/05/26 06:54:18;;;;;;;20.23;6.37;;;24.60;73.00;;;;;;5048725;28;20530;-74
2023/05/26 06:56:45;;;;;;;20.63;6.00;;;25.10;72.40;;;;;;5048068;28;20465;-76
2023/05/26 06:59:12;;;;;;;17.80;5.97;;;25.60;70.70;;;;;;5054324;28;20442;-75
2023/05/26 07:01:39;;;;;;;9.90;5.00;;;26.00;69.20;;;;;;5044720;28;20466;-76
2023/05/26 07:04:06;;;;;;;15.97;5.13;;;25.40;68.20;;;;;;5047478;28;20569;-75
2023/05/26 07:06:35;;;;;;;22.13;5.03;;;24.80;70.20;;;;;;5052390;28;20841;-75
2023/05/26 07:09:02;;;;;;;22.20;5.73;;;24.40;70.90;;;;;;5044753;28;20452;-75
2023/05/26 07:11:29;;;;;;;20.90;5.40;;;23.20;72.00;;;;;;5070663;28;20472;-75
2023/05/26 07:13:56;;;;;;;19.20;6.00;;;22.00;73.50;;;;;;5050611;28;20552;-75
2023/05/26 07:16:23;;;;;;;12.87;4.93;;;21.10;75.50;;;;;;5055336;28;20440;-76
2023/05/26 07:18:50;;;;;;;17.07;5.17;;;20.90;76.40;;;;;;5048086;28;20438;-74
2023/05/26 07:21:18;;;;;;;19.03;5.80;;;20.70;78.50;;;;;;5060904;28;20527;-74
2023/05/26 07:23:47;;;;;;;12.97;4.50;;;20.50;78.40;;;;;;5053013;28;20865;-75
2023/05/26 07:26:14;;;;;;;12.83;5.30;;;21.10;78.70;;;;;;5044762;28;20455;-77
2023/05/26 07:28:41;;;;;;;11.00;5.70;;;22.20;76.20;;;;;;5049183;28;20488;-75
2023/05/26 07:31:08;;;;;;;15.30;6.00;;;23.10;73.70;;;;;;5049071;28;20866;-76
2023/05/26 07:33:35;;;;;;;13.47;4.73;;;24.00;72.40;;;;;;5053188;28;20911;-74
2023/05/26 07:36:02;;;;;;;17.20;6.17;;;24.60;70.20;;;;;;5052056;28;20525;-77
2023/05/26 07:38:29;;;;;;;15.63;5.47;;;24.60;69.70;;;;;;5045426;28;20906;-75
2023/05/26 07:40:57;;;;;;;18.60;5.70;;;24.60;69.10;;;;;;5045178;28;20891;-75
2023/05/26 07:43:24;;;;;;;17.47;6.17;;;24.20;69.30;;;;;;5050885;28;20574;-75
2023/05/26 07:45:51;;;;;;;17.97;6.40;;;23.30;69.20;;;;;;5052235;28;20502;-75
2023/05/26 07:48:18;;;;;;;11.57;4.63;;;22.90;71.40;;;;;;5047021;28;20539;-75
2023/05/26 07:50:45;;;;;;;22.30;6.60;;;23.00;71.40;;;;;;5045017;28;20889;-78
2023/05/26 07:53:12;;;;;;;18.93;7.20;;;22.90;71.70;;;;;;5053107;28;20461;-76
2023/05/26 07:55:39;;;;;;;13.63;5.93;;;23.70;71.10;;;;;;5045859;28;20438;-77
2023/05/26 07:58:09;;;;;;;13.60;4.67;;;25.10;69.40;;;;;;5051732;28;20464;-75
2023/05/26 08:00:36;;;;;;;15.90;5.70;;;26.60;66.90;;;;;;5061814;28;20438;-77
2023/05/26 08:03:04;;;;;;;20.60;4.90;;;27.30;63.90;;;;;;5063290;28;20832;-76
2023/05/26 08:05:31;;;;;;;16.17;5.70;;;27.30;63.40;;;;;;5063434;28;20485;-76
2023/05/26 08:07:58;;;;;;;12.73;4.63;;;27.60;61.00;;;;;;5054182;28;20454;-75
2023/05/26 08:10:25;;;;;;;17.10;5.23;;;27.10;61.10;;;;;;5049120;28;20447;-77
2023/05/26 08:12:53;;;;;;;17.27;6.10;;;26.80;62.60;;;;;;5040720;28;20999;-75
2023/05/26 08:15:23;;;;;;;14.87;4.50;;;27.40;61.60;;;;;;5064177;28;20447;-77
2023/05/26 08:17:50;;;;;;;12.60;5.40;;;27.60;61.20;;;;;;5046921;28;20450;-75
2023/05/26 08:20:17;;;;;;;12.33;4.87;;;27.70;60.10;;;;;;5050696;28;20473;-74
2023/05/26 08:22:44;;;;;;;14.23;4.77;;;28.00;61.00;;;;;;5051724;28;20545;-75
2023/05/26 08:25:12;;;;;;;20.30;5.70;;;28.70;58.60;;;;;;5050636;28;20517;-75
2023/05/26 08:27:39;;;;;;;16.83;5.90;;;27.50;58.50;;;;;;5046294;28;20454;-77
2023/05/26 08:30:07;;;;;;;15.10;5.87;;;25.70;60.80;;;;;;5045447;28;20918;-74
2023/05/26 08:32:36;;;;;;;19.40;6.00;;;24.10;63.10;;;;;;5047851;28;20877;-74
2023/05/26 08:35:03;;;;;;;16.07;4.20;;;22.80;66.50;;;;;;5042925;28;20492;-76
2023/05/26 08:37:30;;;;;;;8.90;4.60;;;22.60;68.40;;;;;;5045420;28;20443;-75
2023/05/26 08:39:57;;;;;;;14.53;4.17;;;23.50;68.30;;;;;;5053210;28;20466;-76
2023/05/26 08:42:28;;;;;;;11.33;4.23;;;24.40;66.40;;;;;;5043753;28;20481;-78
2023/05/26 08:44:57;;;;;;;12.00;4.50;;;25.70;64.50;;;;;;5060793;28;20482;-76
2023/05/26 08:47:24;;;;;;;20.60;5.90;;;26.20;62.90;;;;;;5054823;28;20456;-79
2023/05/26 08:49:56;;;;;;;15.93;5.20;;;25.40;62.90;;;;;;5054811;28;20441;-79
2023/05/26 08:52:25;;;;;;;20.20;5.43;;;24.40;65.30;;;;;;5056442;28;20458;-79
2023/05/26 08:54:52;;;;;;;9.37;4.63;;;23.70;66.20;;;;;;5048933;28;20437;-77
2023/05/26 08:57:21;;;;;;;12.33;5.07;;;22.70;67.40;;;;;;5053495;28;20472;-75
2023/05/26 08:59:49;;;;;;;14.27;4.83;;;21.90;69.50;;;;;;5058647;28;20438;-75
2023/05/26 09:02:17;;;;;;;17.73;5.80;;;21.70;70.70;;;;;;5054860;28;20465;-75
2023/05/26 09:04:44;;;;;;;11.93;5.07;;;21.90;72.00;;;;;;5053564;28;20471;-75
2023/05/26 09:07:13;;;;;;;16.40;5.30;;;22.10;72.10;;;;;;5048162;28;20513;-75
2023/05/26 09:09:41;;;;;;;15.23;4.33;;;22.70;71.00;;;;;;5043936;28;20542;-75
2023/05/26 09:12:11;;;;;;;11.00;4.30;;;23.20;70.40;;;;;;5056612;28;20451;-77
2023/05/26 09:14:39;;;;;;;14.97;5.20;;;23.70;68.90;;;;;;5051285;28;20445;-76
2023/05/26 09:17:06;;;;;;;24.47;6.47;;;24.30;67.60;;;;;;5044505;28;20439;-76
2023/05/26 09:19:34;;;;;;;21.20;7.20;;;25.10;66.50;;;;;;5046416;28;20431;-75
2023/05/26 09:22:07;;;;;;;19.63;5.40;;;25.50;65.30;;;;;;5058839;28;20453;-73
2023/05/26 09:24:46;;;;;;;14.20;4.60;;;26.00;63.70;;;;;;5052461;28;20913;-75
2023/05/26 09:27:20;;;;;;;13.07;4.70;;;25.80;62.70;;;;;;5058378;28;20525;-75
2023/05/26 09:29:52;;;;;;;13.40;5.93;;;25.70;63.10;;;;;;5054607;28;20959;-74
2023/05/26 09:32:19;;;;;;;16.87;4.67;;;25.20;64.60;;;;;;5036155;28;20519;-75
2023/05/26 09:34:50;;;;;;;14.27;5.00;;;24.40;65.70;;;;;;5047414;28;20470;-76
2023/05/26 09:37:17;;;;;;;13.73;4.80;;;23.70;67.60;;;;;;5050863;28;20443;-76
2023/05/26 09:39:46;;;;;;;10.63;4.73;;;23.70;67.60;;;;;;5051046;28;20956;-76
2023/05/26 09:42:12;;;;;;;14.53;5.70;;;24.30;67.20;;;;;;5044544;28;20554;-75
2023/05/26 09:44:39;;;;;;;11.40;4.30;;;24.40;66.30;;;;;;5058455;28;20950;-75
2023/05/26 09:47:07;;;;;;;16.43;5.17;;;24.70;65.90;;;;;;5052278;28;20778;-76
2023/05/26 09:49:34;;;;;;;14.03;5.03;;;24.80;65.00;;;;;;5057803;28;20932;-76
2023/05/26 09:52:01;;;;;;;13.67;4.00;;;24.60;65.70;;;;;;5048069;28;20545;-75
2023/05/26 09:54:28;;;;;;;12.80;4.53;;;25.00;65.80;;;;;;5058419;28;20912;-74
2023/05/26 09:57:01;;;;;;;8.50;3.87;;;25.40;63.70;;;;;;5058480;28;20522;-76
2023/05/26 09:59:36;;;;;;;9.13;4.20;;;26.20;62.30;;;;;;5054790;28;20444;-76
2023/05/26 10:02:12;;;;;;;11.97;4.43;;;26.50;60.00;;;;;;5057264;28;20460;-76
2023/05/26 10:04:40;;;;;;;8.93;4.93;;;26.10;61.30;;;;;;5074128;28;20764;-75
2023/05/26 10:07:08;;;;;;;16.23;6.70;;;25.70;62.10;;;;;;5064460;28;20520;-76
2023/05/26 10:09:37;;;;;;;12.07;4.70;;;25.30;63.10;;;;;;5063312;28;20930;-76
2023/05/26 10:12:07;;;;;;;17.57;5.10;;;25.10;63.10;;;;;;5052484;28;20467;-77
2023/05/26 10:14:36;;;;;;;13.57;5.40;;;24.90;64.30;;;;;;5052634;28;20514;-76
2023/05/26 10:17:04;;;;;;;16.30;4.90;;;25.10;63.80;;;;;;5054361;28;20435;-76
2023/05/26 10:19:31;;;;;;;16.10;5.57;;;25.30;63.20;;;;;;5054191;28;20940;-74
2023/05/26 10:22:04;;;;;;;12.80;5.30;;;25.50;62.40;;;;;;5053685;28;20457;-75
2023/05/26 10:24:36;;;;;;;18.37;5.77;;;25.50;63.00;;;;;;5051014;28;20915;-75
2023/05/26 10:27:09;;;;;;;15.47;4.83;;;25.50;62.20;;;;;;5050087;28;20488;-78
2023/05/26 10:29:47;;;;;;;14.17;4.40;;;25.50;62.80;;;;;;5053750;28;20470;-76
2023/05/26 10:32:47;;;;;;;12.37;4.93;;;25.20;63.00;;;;;;5049300;28;20487;-74
2023/05/26 10:35:22;;;;;;;11.60;4.37;;;24.60;63.70;;;;;;5052609;28;20537;-75
2023/05/26 10:37:50;;;;;;;10.03;4.93;;;24.00;64.60;;;;;;5056777;28;20437;-75
2023/05/26 10:40:27;;;;;;;15.30;4.47;;;23.60;64.70;;;;;;5051984;28;20443;-76
2023/05/26 10:43:00;;;;;;;8.70;3.73;;;23.20;65.80;;;;;;5051420;28;20529;-78
2023/05/26 10:45:31;;;;;;;15.63;5.43;;;23.00;66.20;;;;;;5059353;28;20485;-75
2023/05/26 10:48:07;;;;;;;17.03;4.07;;;23.00;67.30;;;;;;5058142;28;20446;-75
2023/05/26 10:51:16;;;;;;;15.87;4.40;;;22.70;68.00;;;;;;5058105;28;20517;-77
2023/05/26 10:53:44;;;;;;;14.10;5.20;;;22.40;68.10;;;;;;5013897;28;20501;-77
2023/05/26 10:56:13;;;;;;;19.60;5.93;;;22.20;68.80;;;;;;5056033;28;20496;-76
2023/05/26 10:58:45;;;;;;;18.43;4.67;;;21.90;68.80;;;;;;5054586;28;20431;-76
2023/05/26 11:01:16;;;;;;;12.97;5.13;;;21.70;69.00;;;;;;5048932;28;20553;-76
2023/05/26 11:03:44;;;;;;;12.77;4.50;;;21.60;68.50;;;;;;5053292;28;20539;-76
2023/05/26 11:06:13;;;;;;;14.97;5.43;;;21.50;69.20;;;;;;5044358;28;20504;-77
2023/05/26 11:08:41;;;;;;;19.73;5.83;;;21.70;69.80;;;;;;5050758;28;20452;-76
2023/05/26 11:11:09;;;;;;;12.37;5.00;;;21.70;70.00;;;;;;5057585;28;20438;-76
2023/05/26 11:13:45;;;;;;;14.53;4.70;;;21.80;71.00;;;;;;5052642;28;20481;-77
2023/05/26 11:16:18;;;;;;;7.67;4.10;;;21.80;70.20;;;;;;5053611;28;20508;-77
2023/05/26 11:18:52;;;;;;;14.10;4.50;;;21.70;70.10;;;;;;5059101;28;20438;-76
2023/05/26 11:21:24;;;;;;;10.90;5.30;;;21.40;70.00;;;;;;5062635;28;20454;-77
2023/05/26 11:23:55;;;;;;;35.60;9.73;;;21.50;71.20;;;;;;5054730;28;20445;-76
2023/05/26 11:26:23;;;;;;;15.53;5.43;;;21.50;70.60;;;;;;5059881;28;20480;-76
2023/05/26 11:28:52;;;;;;;15.97;5.10;;;21.60;71.20;;;;;;5052408;28;20522;-76
2023/05/26 11:31:22;;;;;;;9.40;3.97;;;21.70;71.90;;;;;;5066797;28;20440;-76
2023/05/26 11:33:49;;;;;;;14.37;4.00;;;21.70;71.40;;;;;;5052225;28;20537;-75
2023/05/26 11:36:18;;;;;;;17.60;5.47;;;21.70;70.70;;;;;;5056061;28;20837;-78
2023/05/26 11:38:46;;;;;;;8.03;4.20;;;21.50;70.00;;;;;;5054192;28;20437;-76
2023/05/26 11:41:15;;;;;;;14.40;4.67;;;21.40;70.50;;;;;;5052621;28;20846;-76
2023/05/26 11:43:45;;;;;;;12.73;4.83;;;21.40;71.50;;;;;;5053263;28;20473;-77
2023/05/26 11:46:16;;;;;;;16.97;4.50;;;21.40;72.60;;;;;;5045708;28;20549;-75
2023/05/26 11:48:44;;;;;;;8.57;3.93;;;21.40;72.30;;;;;;5053716;28;20445;-76
2023/05/26 11:51:12;;;;;;;14.97;5.57;;;21.30;71.40;;;;;;5057032;28;20839;-74
2023/05/26 11:53:41;;;;;;;13.93;4.40;;;21.10;71.50;;;;;;5055168;28;20465;-76
2023/05/26 11:56:10;;;;;;;13.17;5.23;;;20.90;71.20;;;;;;5049778;28;20437;-77
2023/05/26 11:58:39;;;;;;;7.93;3.90;;;20.60;71.70;;;;;;5048134;28;20536;-78
2023/05/26 12:01:06;;;;;;;15.37;4.83;;;20.40;71.50;;;;;;5045364;28;20541;-75
2023/05/26 12:03:38;;;;;;;14.90;5.07;;;20.30;72.10;;;;;;5051923;28;20550;-75
2023/05/26 12:06:10;;;;;;;16.50;5.93;;;20.40;72.00;;;;;;5052770;28;20501;-76
2023/05/26 12:08:50;;;;;;;15.97;6.20;;;20.40;72.90;;;;;;5059363;28;20429;-78
2023/05/26 12:11:20;;;;;;;15.27;6.33;;;20.30;73.50;;;;;;5066442;28;20530;-75
2023/05/26 12:13:48;;;;;;;10.37;4.10;;;20.40;72.90;;;;;;5060708;28;20461;-77
2023/05/26 12:16:23;;;;;;;10.60;4.70;;;20.50;73.00;;;;;;5057558;28;20442;-77
2023/05/26 12:18:56;;;;;;;12.03;5.37;;;20.60;72.60;;;;;;5067230;28;20474;-76
2023/05/26 12:21:25;;;;;;;17.43;5.90;;;20.40;73.10;;;;;;5054125;28;20986;-77
2023/05/26 12:23:52;;;;;;;21.87;5.90;;;20.20;73.50;;;;;;5057740;28;20429;-76
2023/05/26 12:26:22;;;;;;;9.70;4.77;;;20.00;73.30;;;;;;5061929;28;20828;-77
2023/05/26 12:29:06;;;;;;;12.37;5.47;;;19.80;73.80;;;;;;5048264;28;20436;-75
2023/05/26 12:31:44;;;;;;;14.33;6.30;;;19.90;74.60;;;;;;5052776;28;20430;-76
2023/05/26 12:34:14;;;;;;;10.90;5.13;;;19.90;74.80;;;;;;5052888;28;20438;-77
2023/05/26 12:36:41;;;;;;;12.83;5.40;;;19.90;74.40;;;;;;5056915;28;20513;-77
2023/05/26 12:39:08;;;;;;;16.70;5.37;;;19.90;74.40;;;;;;5060193;28;20451;-76
2023/05/26 12:41:36;;;;;;;14.07;5.33;;;20.00;75.30;;;;;;5057210;28;20449;-77
2023/05/26 12:44:03;;;;;;;12.90;4.90;;;19.90;75.50;;;;;;5051779;28;20456;-77
2023/05/26 12:46:31;;;;;;;13.10;5.60;;;19.70;76.80;;;;;;5062698;28;20535;-77
2023/05/26 12:48:59;;;;;;;11.27;4.67;;;19.60;76.90;;;;;;5067852;28;20440;-75